sensor_id;sensor_type;location;lat;lon;timestamp;temperature;humidity
9849;DHT22;4963;51.444;6.528;2023-03-05T00:00:45;5.80;99.90
9849;DHT22;4963;51.444;6.528;2023-03-05T00:03:12;5.90;99.90
9849;DHT22;4963;51.444;6.528;2023-03-05T00:05:39;5.80;99.90
9849;DHT22;4963;51.444;6.528;2023-03-05T00:08:06;5.80;99.90
9849;DHT22;4963;51.444;6.528;2023-03-05T00:10:32;5.70;99.90
9849;DHT22;4963;51.444;6.528;2023-03-05T00:13:01;5.70;99.90
9849;DHT22;4963;51.444;6.528;2023-03-05T00:15:27;5.70;99.90
9849;DHT22;4963;51.444;6.528;2023-03-05T00:17:54;5.70;99.90
9849;DHT22;4963;51.444;6.528;2023-03-05T00:20:21;5.70;99.90
9849;DHT22;4963;51.444;6.528;2023-03-05T00:22:48;5.70;99.90
9849;DHT22;4963;51.444;6.528;2023-03-05T00:25:15;5.70;99.90
9849;DHT22;4963;51.444;6.528;2023-03-05T00:27:41;5.70;99.90
9849;DHT22;4963;51.444;6.528;2023-03-05T00:30:11;5.70;99.90
9849;DHT22;4963;51.444;6.528;2023-03-05T00:32:38;5.70;99.90
9849;DHT22;4963;51.444;6.528;2023-03-05T00:35:05;5.70;99.90
9849;DHT22;4963;51.444;6.528;2023-03-05T00:37:33;5.70;99.90
9849;DHT22;4963;51.444;6.528;2023-03-05T00:39:59;5.60;99.90
9849;DHT22;4963;51.444;6.528;2023-03-05T00:42:26;5.70;99.90
9849;DHT22;4963;51.444;6.528;2023-03-05T00:44:53;5.70;99.90
9849;DHT22;4963;51.444;6.528;2023-03-05T00:47:21;5.70;99.90
9849;DHT22;4963;51.444;6.528;2023-03-05T00:49:48;5.60;99.90
9849;DHT22;4963;51.444;6.528;2023-03-05T00:52:14;5.60;99.90
9849;DHT22;4963;51.444;6.528;2023-03-05T00:54:41;5.70;99.90
9849;DHT22;4963;51.444;6.528;2023-03-05T00:57:08;5.70;99.90
9849;DHT22;4963;51.444;6.528;2023-03-05T00:59:35;5.70;99.90
9849;DHT22;4963;51.444;6.528;2023-03-05T01:02:01;5.70;99.90
9849;DHT22;4963;51.444;6.528;2023-03-05T01:04:30;5.80;99.90
9849;DHT22;4963;51.444;6.528;2023-03-05T01:06:56;5.70;99.90
9849;DHT22;4963;51.444;6.528;2023-03-05T01:09:23;5.70;99.90
9849;DHT22;4963;51.444;6.528;2023-03-05T01:11:50;5.70;99.90
9849;DHT22;4963;51.444;6.528;2023-03-05T01:14:18;5.70;99.90
9849;DHT22;4963;51.444;6.528;2023-03-05T01:16:45;5.70;99.90
9849;DHT22;4963;51.444;6.528;2023-03-05T01:19:13;5.60;99.90
9849;DHT22;4963;51.444;6.528;2023-03-05T01:21:41;5.80;99.90
9849;DHT22;4963;51.444;6.528;2023-03-05T01:24:08;5.70;99.90
9849;DHT22;4963;51.444;6.528;2023-03-05T01:26:35;5.70;99.90
9849;DHT22;4963;51.444;6.528;2023-03-05T01:29:02;5.70;99.90
9849;DHT22;4963;51.444;6.528;2023-03-05T01:31:29;5.70;99.90
9849;DHT22;4963;51.444;6.528;2023-03-05T01:33:56;5.80;99.90
9849;DHT22;4963;51.444;6.528;2023-03-05T01:36:25;5.70;99.90
9849;DHT22;4963;51.444;6.528;2023-03-05T01:38:53;5.70;99.90
9849;DHT22;4963;51.444;6.528;2023-03-05T01:41:19;5.70;99.90
9849;DHT22;4963;51.444;6.528;2023-03-05T01:43:47;5.70;99.90
9849;DHT22;4963;51.444;6.528;2023-03-05T01:46:28;5.70;99.90
9849;DHT22;4963;51.444;6.528;2023-03-05T01:49:07;5.70;99.90
9849;DHT22;4963;51.444;6.528;2023-03-05T01:51:39;5.70;99.90
9849;DHT22;4963;51.444;6.528;2023-03-05T01:54:11;5.80;99.90
9849;DHT22;4963;51.444;6.528;2023-03-05T01:56:39;5.70;99.90
9849;DHT22;4963;51.444;6.528;2023-03-05T01:59:06;5.70;99.90
9849;DHT22;4963;51.444;6.528;2023-03-05T02:01:38;5.70;99.90
9849;DHT22;4963;51.444;6.528;2023-03-05T02:04:07;5.70;99.90
9849;DHT22;4963;51.444;6.528;2023-03-05T02:06:35;5.60;99.90
9849;DHT22;4963;51.444;6.528;2023-03-05T02:09:02;5.90;99.90
9849;DHT22;4963;51.444;6.528;2023-03-05T02:11:31;5.60;99.90
9849;DHT22;4963;51.444;6.528;2023-03-05T02:13:59;5.60;99.90
9849;DHT22;4963;51.444;6.528;2023-03-05T02:16:28;5.60;99.90
9849;DHT22;4963;51.444;6.528;2023-03-05T02:19:01;5.50;99.90
9849;DHT22;4963;51.444;6.528;2023-03-05T02:21:36;5.50;99.90
9849;DHT22;4963;51.444;6.528;2023-03-05T02:24:04;5.60;99.90
9849;DHT22;4963;51.444;6.528;2023-03-05T02:26:31;5.70;99.90
9849;DHT22;4963;51.444;6.528;2023-03-05T02:29:00;5.60;99.90
9849;DHT22;4963;51.444;6.528;2023-03-05T02:31:28;5.60;99.90
9849;DHT22;4963;51.444;6.528;2023-03-05T02:33:55;5.60;99.90
9849;DHT22;4963;51.444;6.528;2023-03-05T02:36:23;5.60;99.90
9849;DHT22;4963;51.444;6.528;2023-03-05T02:38:51;5.70;99.90
9849;DHT22;4963;51.444;6.528;2023-03-05T02:41:18;5.60;99.90
9849;DHT22;4963;51.444;6.528;2023-03-05T02:43:45;5.50;99.90
9849;DHT22;4963;51.444;6.528;2023-03-05T02:46:12;5.50;99.90
9849;DHT22;4963;51.444;6.528;2023-03-05T02:48:39;5.50;99.90
9849;DHT22;4963;51.444;6.528;2023-03-05T02:51:06;5.50;99.90
9849;DHT22;4963;51.444;6.528;2023-03-05T02:53:33;5.50;99.90
9849;DHT22;4963;51.444;6.528;2023-03-05T02:56:02;5.50;99.90
9849;DHT22;4963;51.444;6.528;2023-03-05T02:58:29;5.50;99.90
9849;DHT22;4963;51.444;6.528;2023-03-05T03:00:56;5.50;99.90
9849;DHT22;4963;51.444;6.528;2023-03-05T03:03:22;5.40;99.90
9849;DHT22;4963;51.444;6.528;2023-03-05T03:05:49;5.50;99.90
9849;DHT22;4963;51.444;6.528;2023-03-05T03:08:16;5.40;99.90
9849;DHT22;4963;51.444;6.528;2023-03-05T03:10:43;5.40;99.90
9849;DHT22;4963;51.444;6.528;2023-03-05T03:13:11;5.40;99.90
9849;DHT22;4963;51.444;6.528;2023-03-05T03:15:38;5.50;99.90
9849;DHT22;4963;51.444;6.528;2023-03-05T03:18:04;5.50;99.90
9849;DHT22;4963;51.444;6.528;2023-03-05T03:20:31;5.60;99.90
9849;DHT22;4963;51.444;6.528;2023-03-05T03:22:59;5.40;99.90
9849;DHT22;4963;51.444;6.528;2023-03-05T03:25:27;5.30;99.90
9849;DHT22;4963;51.444;6.528;2023-03-05T03:27:54;5.30;99.90
9849;DHT22;4963;51.444;6.528;2023-03-05T03:30:22;5.40;99.90
9849;DHT22;4963;51.444;6.528;2023-03-05T03:32:50;5.30;99.90
9849;DHT22;4963;51.444;6.528;2023-03-05T03:35:17;5.30;99.90
9849;DHT22;4963;51.444;6.528;2023-03-05T03:37:44;5.40;99.90
9849;DHT22;4963;51.444;6.528;2023-03-05T03:40:12;5.30;99.90
9849;DHT22;4963;51.444;6.528;2023-03-05T03:42:39;5.40;99.90
9849;DHT22;4963;51.444;6.528;2023-03-05T03:45:06;5.30;99.90
9849;DHT22;4963;51.444;6.528;2023-03-05T03:47:35;5.30;99.90
9849;DHT22;4963;51.444;6.528;2023-03-05T03:50:02;5.30;99.90
9849;DHT22;4963;51.444;6.528;2023-03-05T03:52:29;5.30;99.90
9849;DHT22;4963;51.444;6.528;2023-03-05T03:54:55;5.30;99.90
9849;DHT22;4963;51.444;6.528;2023-03-05T03:57:26;5.30;99.90
9849;DHT22;4963;51.444;6.528;2023-03-05T03:59:53;5.20;99.90
9849;DHT22;4963;51.444;6.528;2023-03-05T04:02:20;5.20;99.90
9849;DHT22;4963;51.444;6.528;2023-03-05T04:04:48;5.30;99.90
9849;DHT22;4963;51.444;6.528;2023-03-05T04:07:15;5.20;99.90
9849;DHT22;4963;51.444;6.528;2023-03-05T04:09:42;5.30;99.90
9849;DHT22;4963;51.444;6.528;2023-03-05T04:12:09;5.30;99.90
9849;DHT22;4963;51.444;6.528;2023-03-05T04:14:36;5.20;99.90
9849;DHT22;4963;51.444;6.528;2023-03-05T04:17:02;5.30;99.90
9849;DHT22;4963;51.444;6.528;2023-03-05T04:19:29;5.30;99.90
9849;DHT22;4963;51.444;6.528;2023-03-05T04:21:58;5.20;99.90
9849;DHT22;4963;51.444;6.528;2023-03-05T04:24:25;5.30;99.90
9849;DHT22;4963;51.444;6.528;2023-03-05T04:26:51;5.30;99.90
9849;DHT22;4963;51.444;6.528;2023-03-05T04:29:18;5.30;99.90
9849;DHT22;4963;51.444;6.528;2023-03-05T04:31:45;5.30;99.90
9849;DHT22;4963;51.444;6.528;2023-03-05T04:34:12;5.30;99.90
9849;DHT22;4963;51.444;6.528;2023-03-05T04:36:38;5.20;99.90
9849;DHT22;4963;51.444;6.528;2023-03-05T04:39:07;5.20;99.90
9849;DHT22;4963;51.444;6.528;2023-03-05T04:41:33;5.20;99.90
9849;DHT22;4963;51.444;6.528;2023-03-05T04:44:00;5.20;99.90
9849;DHT22;4963;51.444;6.528;2023-03-05T04:46:27;5.20;99.90
9849;DHT22;4963;51.444;6.528;2023-03-05T04:48:54;5.20;99.90
9849;DHT22;4963;51.444;6.528;2023-03-05T04:51:20;5.20;99.90
9849;DHT22;4963;51.444;6.528;2023-03-05T04:53:47;5.20;99.90
9849;DHT22;4963;51.444;6.528;2023-03-05T04:56:15;5.20;99.90
9849;DHT22;4963;51.444;6.528;2023-03-05T04:58:42;5.20;99.90
9849;DHT22;4963;51.444;6.528;2023-03-05T05:01:09;5.30;99.90
9849;DHT22;4963;51.444;6.528;2023-03-05T05:03:36;5.20;99.90
9849;DHT22;4963;51.444;6.528;2023-03-05T05:06:03;5.20;99.90
9849;DHT22;4963;51.444;6.528;2023-03-05T05:08:30;5.20;99.90
9849;DHT22;4963;51.444;6.528;2023-03-05T05:10:58;5.30;99.90
9849;DHT22;4963;51.444;6.528;2023-03-05T05:13:27;5.20;99.90
9849;DHT22;4963;51.444;6.528;2023-03-05T05:15:55;5.30;99.90
9849;DHT22;4963;51.444;6.528;2023-03-05T05:18:22;5.30;99.90
9849;DHT22;4963;51.444;6.528;2023-03-05T05:20:49;5.20;99.90
9849;DHT22;4963;51.444;6.528;2023-03-05T05:23:16;5.20;99.90
9849;DHT22;4963;51.444;6.528;2023-03-05T05:25:43;5.30;99.90
9849;DHT22;4963;51.444;6.528;2023-03-05T05:28:10;5.30;99.90
9849;DHT22;4963;51.444;6.528;2023-03-05T05:30:39;5.20;99.90
9849;DHT22;4963;51.444;6.528;2023-03-05T05:33:05;5.20;99.90
9849;DHT22;4963;51.444;6.528;2023-03-05T05:35:33;5.20;99.90
9849;DHT22;4963;51.444;6.528;2023-03-05T05:38:04;5.20;99.90
9849;DHT22;4963;51.444;6.528;2023-03-05T05:40:30;5.20;99.90
9849;DHT22;4963;51.444;6.528;2023-03-05T05:42:57;5.10;99.90
9849;DHT22;4963;51.444;6.528;2023-03-05T05:45:24;5.10;99.90
9849;DHT22;4963;51.444;6.528;2023-03-05T05:47:52;5.20;99.90
9849;DHT22;4963;51.444;6.528;2023-03-05T05:50:19;5.10;99.90
9849;DHT22;4963;51.444;6.528;2023-03-05T05:52:46;5.20;99.90
9849;DHT22;4963;51.444;6.528;2023-03-05T05:55:13;5.10;99.90
9849;DHT22;4963;51.444;6.528;2023-03-05T05:57:39;5.10;99.90
9849;DHT22;4963;51.444;6.528;2023-03-05T06:00:09;5.00;99.90
9849;DHT22;4963;51.444;6.528;2023-03-05T06:02:37;5.10;99.90
9849;DHT22;4963;51.444;6.528;2023-03-05T06:05:07;5.10;99.90
9849;DHT22;4963;51.444;6.528;2023-03-05T06:07:34;5.10;99.90
9849;DHT22;4963;51.444;6.528;2023-03-05T06:10:02;5.50;99.90
9849;DHT22;4963;51.444;6.528;2023-03-05T06:12:29;5.10;99.90
9849;DHT22;4963;51.444;6.528;2023-03-05T06:14:56;5.10;99.90
9849;DHT22;4963;51.444;6.528;2023-03-05T06:17:23;5.20;99.90
9849;DHT22;4963;51.444;6.528;2023-03-05T06:19:49;5.10;99.90
9849;DHT22;4963;51.444;6.528;2023-03-05T06:22:21;5.20;99.90
9849;DHT22;4963;51.444;6.528;2023-03-05T06:24:47;5.20;99.90
9849;DHT22;4963;51.444;6.528;2023-03-05T06:27:14;5.10;99.90
9849;DHT22;4963;51.444;6.528;2023-03-05T06:29:41;5.10;99.90
9849;DHT22;4963;51.444;6.528;2023-03-05T06:32:08;5.10;99.90
9849;DHT22;4963;51.444;6.528;2023-03-05T06:34:34;5.10;99.90
9849;DHT22;4963;51.444;6.528;2023-03-05T06:37:01;5.10;99.90
9849;DHT22;4963;51.444;6.528;2023-03-05T06:39:29;5.10;99.90
9849;DHT22;4963;51.444;6.528;2023-03-05T06:41:56;5.10;99.90
9849;DHT22;4963;51.444;6.528;2023-03-05T06:44:23;5.10;99.90
9849;DHT22;4963;51.444;6.528;2023-03-05T06:46:51;5.10;99.90
9849;DHT22;4963;51.444;6.528;2023-03-05T06:49:18;5.10;99.90
9849;DHT22;4963;51.444;6.528;2023-03-05T06:51:44;5.10;99.90
9849;DHT22;4963;51.444;6.528;2023-03-05T06:54:13;5.20;99.90
9849;DHT22;4963;51.444;6.528;2023-03-05T06:56:44;5.10;99.90
9849;DHT22;4963;51.444;6.528;2023-03-05T06:59:11;5.20;99.90
9849;DHT22;4963;51.444;6.528;2023-03-05T07:01:38;5.20;99.90
9849;DHT22;4963;51.444;6.528;2023-03-05T07:04:05;5.20;99.90
9849;DHT22;4963;51.444;6.528;2023-03-05T07:06:33;5.10;99.90
9849;DHT22;4963;51.444;6.528;2023-03-05T07:09:00;5.20;99.90
9849;DHT22;4963;51.444;6.528;2023-03-05T07:11:28;5.20;99.90
9849;DHT22;4963;51.444;6.528;2023-03-05T07:13:57;5.20;99.90
9849;DHT22;4963;51.444;6.528;2023-03-05T07:16:25;5.10;99.90
9849;DHT22;4963;51.444;6.528;2023-03-05T07:18:53;5.10;99.90
9849;DHT22;4963;51.444;6.528;2023-03-05T07:21:22;5.30;99.90
9849;DHT22;4963;51.444;6.528;2023-03-05T07:23:49;5.20;99.90
9849;DHT22;4963;51.444;6.528;2023-03-05T07:26:18;5.20;99.90
9849;DHT22;4963;51.444;6.528;2023-03-05T07:28:45;5.20;99.90
9849;DHT22;4963;51.444;6.528;2023-03-05T07:31:14;5.30;99.90
9849;DHT22;4963;51.444;6.528;2023-03-05T07:33:43;5.30;99.90
9849;DHT22;4963;51.444;6.528;2023-03-05T07:36:10;5.20;99.90
9849;DHT22;4963;51.444;6.528;2023-03-05T07:38:38;5.30;99.90
9849;DHT22;4963;51.444;6.528;2023-03-05T07:41:06;5.30;99.90
9849;DHT22;4963;51.444;6.528;2023-03-05T07:43:33;5.30;99.90
9849;DHT22;4963;51.444;6.528;2023-03-05T07:46:03;5.30;99.90
9849;DHT22;4963;51.444;6.528;2023-03-05T07:48:32;5.40;99.90
9849;DHT22;4963;51.444;6.528;2023-03-05T07:51:02;5.30;99.90
9849;DHT22;4963;51.444;6.528;2023-03-05T07:53:29;5.40;99.90
9849;DHT22;4963;51.444;6.528;2023-03-05T07:55:56;5.40;99.90
9849;DHT22;4963;51.444;6.528;2023-03-05T07:58:23;5.40;99.90
9849;DHT22;4963;51.444;6.528;2023-03-05T08:00:50;5.40;99.90
9849;DHT22;4963;51.444;6.528;2023-03-05T08:03:17;5.30;99.90
9849;DHT22;4963;51.444;6.528;2023-03-05T08:05:46;5.40;99.90
9849;DHT22;4963;51.444;6.528;2023-03-05T08:08:12;5.40;99.90
9849;DHT22;4963;51.444;6.528;2023-03-05T08:10:41;5.50;99.90
9849;DHT22;4963;51.444;6.528;2023-03-05T08:13:08;5.50;99.90
9849;DHT22;4963;51.444;6.528;2023-03-05T08:15:36;5.40;99.90
9849;DHT22;4963;51.444;6.528;2023-03-05T08:18:04;5.40;99.90
9849;DHT22;4963;51.444;6.528;2023-03-05T08:20:33;5.40;99.90
9849;DHT22;4963;51.444;6.528;2023-03-05T08:23:03;5.50;99.90
9849;DHT22;4963;51.444;6.528;2023-03-05T08:25:30;5.50;99.90
9849;DHT22;4963;51.444;6.528;2023-03-05T08:27:57;5.50;99.90
9849;DHT22;4963;51.444;6.528;2023-03-05T08:30:24;5.50;99.90
9849;DHT22;4963;51.444;6.528;2023-03-05T08:32:52;5.50;99.90
9849;DHT22;4963;51.444;6.528;2023-03-05T08:35:19;5.50;99.90
9849;DHT22;4963;51.444;6.528;2023-03-05T08:37:46;5.50;99.90
9849;DHT22;4963;51.444;6.528;2023-03-05T08:40:14;5.50;99.90
9849;DHT22;4963;51.444;6.528;2023-03-05T08:42:42;5.60;99.90
9849;DHT22;4963;51.444;6.528;2023-03-05T08:45:10;5.60;99.90
9849;DHT22;4963;51.444;6.528;2023-03-05T08:47:37;5.60;99.90
9849;DHT22;4963;51.444;6.528;2023-03-05T08:50:05;5.60;99.90
9849;DHT22;4963;51.444;6.528;2023-03-05T08:52:32;5.60;99.90
9849;DHT22;4963;51.444;6.528;2023-03-05T08:54:58;5.70;99.90
9849;DHT22;4963;51.444;6.528;2023-03-05T08:57:26;5.60;99.90
9849;DHT22;4963;51.444;6.528;2023-03-05T08:59:53;5.70;99.90
9849;DHT22;4963;51.444;6.528;2023-03-05T09:02:20;5.70;99.90
9849;DHT22;4963;51.444;6.528;2023-03-05T09:04:47;5.80;99.90
9849;DHT22;4963;51.444;6.528;2023-03-05T09:07:14;5.80;99.90
9849;DHT22;4963;51.444;6.528;2023-03-05T09:09:41;5.80;99.90
9849;DHT22;4963;51.444;6.528;2023-03-05T09:12:08;5.80;99.90
9849;DHT22;4963;51.444;6.528;2023-03-05T09:14:37;5.80;99.90
9849;DHT22;4963;51.444;6.528;2023-03-05T09:17:04;5.90;99.90
9849;DHT22;4963;51.444;6.528;2023-03-05T09:19:31;5.90;99.90
9849;DHT22;4963;51.444;6.528;2023-03-05T09:21:58;5.90;99.90
9849;DHT22;4963;51.444;6.528;2023-03-05T09:24:25;6.00;99.90
9849;DHT22;4963;51.444;6.528;2023-03-05T09:26:52;6.00;99.90
9849;DHT22;4963;51.444;6.528;2023-03-05T09:29:18;6.10;99.90
9849;DHT22;4963;51.444;6.528;2023-03-05T09:31:49;6.00;99.90
9849;DHT22;4963;51.444;6.528;2023-03-05T09:34:16;6.00;99.90
9849;DHT22;4963;51.444;6.528;2023-03-05T09:36:43;6.20;99.90
9849;DHT22;4963;51.444;6.528;2023-03-05T09:39:10;6.10;99.90
9849;DHT22;4963;51.444;6.528;2023-03-05T09:41:53;6.10;99.90
9849;DHT22;4963;51.444;6.528;2023-03-05T09:44:27;6.20;99.90
9849;DHT22;4963;51.444;6.528;2023-03-05T09:47:08;6.30;99.90
9849;DHT22;4963;51.444;6.528;2023-03-05T09:49:49;6.40;99.90
9849;DHT22;4963;51.444;6.528;2023-03-05T09:52:21;6.50;99.90
9849;DHT22;4963;51.444;6.528;2023-03-05T09:54:52;6.50;99.90
9849;DHT22;4963;51.444;6.528;2023-03-05T09:57:22;6.50;99.90
9849;DHT22;4963;51.444;6.528;2023-03-05T09:59:53;6.60;99.90
9849;DHT22;4963;51.444;6.528;2023-03-05T10:02:25;6.60;99.90
9849;DHT22;4963;51.444;6.528;2023-03-05T10:04:59;6.60;99.90
9849;DHT22;4963;51.444;6.528;2023-03-05T10:07:30;6.50;99.90
9849;DHT22;4963;51.444;6.528;2023-03-05T10:09:58;6.50;99.90
9849;DHT22;4963;51.444;6.528;2023-03-05T10:12:39;6.50;99.90
9849;DHT22;4963;51.444;6.528;2023-03-05T10:15:12;6.50;99.90
9849;DHT22;4963;51.444;6.528;2023-03-05T10:18:02;6.60;99.90
9849;DHT22;4963;51.444;6.528;2023-03-05T10:20:49;6.50;99.90
9849;DHT22;4963;51.444;6.528;2023-03-05T10:23:26;6.60;99.90
9849;DHT22;4963;51.444;6.528;2023-03-05T10:26:01;6.70;99.90
9849;DHT22;4963;51.444;6.528;2023-03-05T10:28:34;6.60;99.90
9849;DHT22;4963;51.444;6.528;2023-03-05T10:34:37;6.40;99.90
9849;DHT22;4963;51.444;6.528;2023-03-05T10:37:18;6.50;99.90
9849;DHT22;4963;51.444;6.528;2023-03-05T10:39:58;6.50;99.90
9849;DHT22;4963;51.444;6.528;2023-03-05T10:42:39;6.40;99.90
9849;DHT22;4963;51.444;6.528;2023-03-05T10:45:14;6.30;99.90
9849;DHT22;4963;51.444;6.528;2023-03-05T10:47:44;6.20;99.90
9849;DHT22;4963;51.444;6.528;2023-03-05T10:50:17;6.00;99.90
9849;DHT22;4963;51.444;6.528;2023-03-05T10:52:45;6.00;99.90
9849;DHT22;4963;51.444;6.528;2023-03-05T10:55:17;6.00;99.90
9849;DHT22;4963;51.444;6.528;2023-03-05T10:57:44;6.00;99.90
9849;DHT22;4963;51.444;6.528;2023-03-05T11:00:17;6.10;99.90
9849;DHT22;4963;51.444;6.528;2023-03-05T11:02:57;6.20;99.90
9849;DHT22;4963;51.444;6.528;2023-03-05T11:05:44;6.30;99.90
9849;DHT22;4963;51.444;6.528;2023-03-05T11:08:29;6.50;99.90
9849;DHT22;4963;51.444;6.528;2023-03-05T11:11:14;6.60;99.90
9849;DHT22;4963;51.444;6.528;2023-03-05T11:13:54;6.80;99.90
9849;DHT22;4963;51.444;6.528;2023-03-05T11:16:24;7.00;99.90
9849;DHT22;4963;51.444;6.528;2023-03-05T11:19:16;7.10;99.90
9849;DHT22;4963;51.444;6.528;2023-03-05T11:21:45;7.20;99.90
9849;DHT22;4963;51.444;6.528;2023-03-05T11:24:15;7.30;99.90
9849;DHT22;4963;51.444;6.528;2023-03-05T11:26:48;7.40;99.90
9849;DHT22;4963;51.444;6.528;2023-03-05T11:29:19;7.30;99.90
9849;DHT22;4963;51.444;6.528;2023-03-05T11:31:46;7.30;99.90
9849;DHT22;4963;51.444;6.528;2023-03-05T11:34:29;7.30;99.90
9849;DHT22;4963;51.444;6.528;2023-03-05T11:37:03;7.30;99.90
9849;DHT22;4963;51.444;6.528;2023-03-05T11:39:32;7.30;99.90
9849;DHT22;4963;51.444;6.528;2023-03-05T11:42:03;7.20;99.90
9849;DHT22;4963;51.444;6.528;2023-03-05T11:44:34;7.10;99.90
9849;DHT22;4963;51.444;6.528;2023-03-05T11:47:20;7.00;99.90
9849;DHT22;4963;51.444;6.528;2023-03-05T11:49:53;7.10;99.90
9849;DHT22;4963;51.444;6.528;2023-03-05T11:52:25;7.10;99.90
9849;DHT22;4963;51.444;6.528;2023-03-05T11:54:58;7.10;99.90
9849;DHT22;4963;51.444;6.528;2023-03-05T11:57:34;7.00;99.90
9849;DHT22;4963;51.444;6.528;2023-03-05T12:00:06;7.10;99.90
9849;DHT22;4963;51.444;6.528;2023-03-05T12:02:37;7.00;99.90
9849;DHT22;4963;51.444;6.528;2023-03-05T12:05:05;7.00;99.90
9849;DHT22;4963;51.444;6.528;2023-03-05T12:07:36;7.00;99.90
9849;DHT22;4963;51.444;6.528;2023-03-05T12:10:05;7.00;99.90
9849;DHT22;4963;51.444;6.528;2023-03-05T12:12:42;6.90;99.90
9849;DHT22;4963;51.444;6.528;2023-03-05T12:15:37;6.80;99.90
9849;DHT22;4963;51.444;6.528;2023-03-05T12:18:20;6.60;99.90
9849;DHT22;4963;51.444;6.528;2023-03-05T12:20:59;6.60;99.90
9849;DHT22;4963;51.444;6.528;2023-03-05T12:23:43;6.40;99.90
9849;DHT22;4963;51.444;6.528;2023-03-05T12:26:10;6.40;99.90
9849;DHT22;4963;51.444;6.528;2023-03-05T12:28:54;6.30;99.90
9849;DHT22;4963;51.444;6.528;2023-03-05T12:31:35;6.30;99.90
9849;DHT22;4963;51.444;6.528;2023-03-05T12:40:22;6.40;99.90
9849;DHT22;4963;51.444;6.528;2023-03-05T12:42:54;6.50;99.90
9849;DHT22;4963;51.444;6.528;2023-03-05T12:45:39;6.50;99.90
9849;DHT22;4963;51.444;6.528;2023-03-05T12:48:41;6.60;99.90
9849;DHT22;4963;51.444;6.528;2023-03-05T12:51:31;6.70;99.90
9849;DHT22;4963;51.444;6.528;2023-03-05T12:54:21;6.70;99.90
9849;DHT22;4963;51.444;6.528;2023-03-05T12:56:49;6.70;99.90
9849;DHT22;4963;51.444;6.528;2023-03-05T12:59:19;6.60;99.90
9849;DHT22;4963;51.444;6.528;2023-03-05T13:01:51;6.70;99.90
9849;DHT22;4963;51.444;6.528;2023-03-05T13:04:23;6.70;99.90
9849;DHT22;4963;51.444;6.528;2023-03-05T13:06:58;6.70;99.90
9849;DHT22;4963;51.444;6.528;2023-03-05T13:09:27;6.80;99.90
9849;DHT22;4963;51.444;6.528;2023-03-05T13:11:57;6.90;99.90
9849;DHT22;4963;51.444;6.528;2023-03-05T13:14:42;7.00;99.90
9849;DHT22;4963;51.444;6.528;2023-03-05T13:17:31;7.20;99.90
9849;DHT22;4963;51.444;6.528;2023-03-05T13:20:00;7.10;99.90
9849;DHT22;4963;51.444;6.528;2023-03-05T13:22:31;7.20;99.90
9849;DHT22;4963;51.444;6.528;2023-03-05T13:25:11;7.20;99.90
9849;DHT22;4963;51.444;6.528;2023-03-05T13:27:40;7.30;99.90
9849;DHT22;4963;51.444;6.528;2023-03-05T13:30:20;7.30;99.90
9849;DHT22;4963;51.444;6.528;2023-03-05T13:32:49;7.30;99.90
9849;DHT22;4963;51.444;6.528;2023-03-05T13:35:16;7.30;99.90
9849;DHT22;4963;51.444;6.528;2023-03-05T13:37:45;7.30;99.90
9849;DHT22;4963;51.444;6.528;2023-03-05T13:40:21;7.30;99.90
9849;DHT22;4963;51.444;6.528;2023-03-05T13:42:50;7.40;99.90
9849;DHT22;4963;51.444;6.528;2023-03-05T13:45:24;7.40;99.90
9849;DHT22;4963;51.444;6.528;2023-03-05T13:47:54;7.40;99.90
9849;DHT22;4963;51.444;6.528;2023-03-05T13:50:24;7.40;99.90
9849;DHT22;4963;51.444;6.528;2023-03-05T13:52:51;7.50;99.90
9849;DHT22;4963;51.444;6.528;2023-03-05T13:55:18;7.40;99.90
9849;DHT22;4963;51.444;6.528;2023-03-05T13:57:47;7.40;99.90
9849;DHT22;4963;51.444;6.528;2023-03-05T14:00:30;7.40;99.90
9849;DHT22;4963;51.444;6.528;2023-03-05T14:03:00;7.40;99.90
9849;DHT22;4963;51.444;6.528;2023-03-05T14:05:29;7.40;99.90
9849;DHT22;4963;51.444;6.528;2023-03-05T14:07:56;7.40;99.90
9849;DHT22;4963;51.444;6.528;2023-03-05T14:10:30;7.50;99.90
9849;DHT22;4963;51.444;6.528;2023-03-05T14:12:59;7.50;99.90
9849;DHT22;4963;51.444;6.528;2023-03-05T14:15:30;7.50;99.90
9849;DHT22;4963;51.444;6.528;2023-03-05T14:18:14;7.60;99.90
9849;DHT22;4963;51.444;6.528;2023-03-05T14:20:58;7.60;99.90
9849;DHT22;4963;51.444;6.528;2023-03-05T14:23:30;7.50;99.90
9849;DHT22;4963;51.444;6.528;2023-03-05T14:26:21;7.50;99.90
9849;DHT22;4963;51.444;6.528;2023-03-05T14:28:50;7.60;99.90
9849;DHT22;4963;51.444;6.528;2023-03-05T14:31:19;7.80;99.90
9849;DHT22;4963;51.444;6.528;2023-03-05T14:33:47;7.60;99.90
9849;DHT22;4963;51.444;6.528;2023-03-05T14:36:20;7.60;99.90
9849;DHT22;4963;51.444;6.528;2023-03-05T14:38:48;7.70;99.90
9849;DHT22;4963;51.444;6.528;2023-03-05T14:41:32;7.70;99.90
9849;DHT22;4963;51.444;6.528;2023-03-05T14:44:00;7.60;99.90
9849;DHT22;4963;51.444;6.528;2023-03-05T14:46:28;7.60;99.90
9849;DHT22;4963;51.444;6.528;2023-03-05T14:48:55;7.70;99.90
9849;DHT22;4963;51.444;6.528;2023-03-05T14:51:22;7.60;99.90
9849;DHT22;4963;51.444;6.528;2023-03-05T14:53:49;7.70;99.90
9849;DHT22;4963;51.444;6.528;2023-03-05T14:56:19;7.60;99.90
9849;DHT22;4963;51.444;6.528;2023-03-05T14:58:47;7.60;99.90
9849;DHT22;4963;51.444;6.528;2023-03-05T15:01:14;7.40;99.90
9849;DHT22;4963;51.444;6.528;2023-03-05T15:03:42;7.60;99.90
9849;DHT22;4963;51.444;6.528;2023-03-05T15:06:17;7.60;99.90
9849;DHT22;4963;51.444;6.528;2023-03-05T15:08:46;7.50;99.90
9849;DHT22;4963;51.444;6.528;2023-03-05T15:11:12;7.50;99.90
9849;DHT22;4963;51.444;6.528;2023-03-05T15:13:39;7.40;99.90
9849;DHT22;4963;51.444;6.528;2023-03-05T15:16:06;7.40;99.90
9849;DHT22;4963;51.444;6.528;2023-03-05T15:18:33;7.40;99.90
9849;DHT22;4963;51.444;6.528;2023-03-05T15:21:02;7.40;99.90
9849;DHT22;4963;51.444;6.528;2023-03-05T15:23:29;7.50;99.90
9849;DHT22;4963;51.444;6.528;2023-03-05T15:26:01;7.50;99.90
9849;DHT22;4963;51.444;6.528;2023-03-05T15:28:31;7.50;99.90
9849;DHT22;4963;51.444;6.528;2023-03-05T15:30:59;7.60;99.90
9849;DHT22;4963;51.444;6.528;2023-03-05T15:33:26;7.60;99.90
9849;DHT22;4963;51.444;6.528;2023-03-05T15:35:53;7.60;99.90
9849;DHT22;4963;51.444;6.528;2023-03-05T15:38:22;7.60;99.90
9849;DHT22;4963;51.444;6.528;2023-03-05T15:40:49;7.60;99.90
9849;DHT22;4963;51.444;6.528;2023-03-05T15:43:16;7.50;99.90
9849;DHT22;4963;51.444;6.528;2023-03-05T15:45:43;7.60;99.90
9849;DHT22;4963;51.444;6.528;2023-03-05T15:48:10;7.50;99.90
9849;DHT22;4963;51.444;6.528;2023-03-05T15:50:38;7.50;99.90
9849;DHT22;4963;51.444;6.528;2023-03-05T15:53:05;7.50;99.90
9849;DHT22;4963;51.444;6.528;2023-03-05T15:55:37;7.50;99.90
9849;DHT22;4963;51.444;6.528;2023-03-05T15:58:05;7.40;99.90
9849;DHT22;4963;51.444;6.528;2023-03-05T16:00:34;7.40;99.90
9849;DHT22;4963;51.444;6.528;2023-03-05T16:03:01;7.50;99.90
9849;DHT22;4963;51.444;6.528;2023-03-05T16:05:28;7.30;99.90
9849;DHT22;4963;51.444;6.528;2023-03-05T16:07:55;7.30;99.90
9849;DHT22;4963;51.444;6.528;2023-03-05T16:10:24;7.30;99.90
9849;DHT22;4963;51.444;6.528;2023-03-05T16:12:56;7.20;99.90
9849;DHT22;4963;51.444;6.528;2023-03-05T16:15:25;7.20;99.90
9849;DHT22;4963;51.444;6.528;2023-03-05T16:17:53;7.20;99.90
9849;DHT22;4963;51.444;6.528;2023-03-05T16:20:21;7.20;99.90
9849;DHT22;4963;51.444;6.528;2023-03-05T16:22:49;7.20;99.90
9849;DHT22;4963;51.444;6.528;2023-03-05T16:25:16;7.20;99.90
9849;DHT22;4963;51.444;6.528;2023-03-05T16:27:42;7.20;99.90
9849;DHT22;4963;51.444;6.528;2023-03-05T16:30:13;7.20;99.90
9849;DHT22;4963;51.444;6.528;2023-03-05T16:32:41;7.10;99.90
9849;DHT22;4963;51.444;6.528;2023-03-05T16:35:08;7.10;99.90
9849;DHT22;4963;51.444;6.528;2023-03-05T16:37:36;7.10;99.90
9849;DHT22;4963;51.444;6.528;2023-03-05T16:40:04;7.00;99.90
9849;DHT22;4963;51.444;6.528;2023-03-05T16:42:31;7.10;99.90